Time;durP1;ratioP1;P1;durP2;ratioP2;P2;SDS_P1;SDS_P2;PMS_P1;PMS_P2;Temp;Humidity;BMP_temperature;BMP_pressure;BME280_temperature;BME280_humidity;BME280_pressure;Samples;Min_cycle;Max_cycle;Signal;HPM_P1;HPM_P2
2022/08/29 00:01:07;;;;;;;;;;;17.10;99.90;;;;;;4889567;28;20037;-73
2022/08/29 00:03:33;;;;;;;;;;;17.10;99.90;;;;;;4891744;28;20375;-72
2022/08/29 00:05:59;;;;;;;;;;;17.10;99.90;;;;;;4895773;28;20028;-72
2022/08/29 00:08:24;;;;;;;;;;;17.10;99.90;;;;;;4895824;28;20538;-73
2022/08/29 00:10:50;;;;;;;;;;;17.10;99.90;;;;;;4874487;28;19929;-72
2022/08/29 00:13:16;;;;;;;;;;;17.10;99.90;;;;;;4879784;28;19933;-72
2022/08/29 00:15:42;;;;;;;;;;;17.10;99.90;;;;;;4898285;28;22654;-72
2022/08/29 00:18:07;;;;;;;;;;;17.10;99.90;;;;;;4876190;28;20339;-72
2022/08/29 00:20:34;;;;;;;;;;;17.10;99.90;;;;;;4896598;28;20416;-72
2022/08/29 00:23:00;;;;;;;;;;;17.10;99.90;;;;;;4900197;28;19933;-73
2022/08/29 00:25:26;;;;;;;;;;;17.10;99.90;;;;;;4897416;28;20017;-73
2022/08/29 00:27:51;;;;;;;;;;;17.10;99.90;;;;;;4900011;28;20452;-72
2022/08/29 00:30:18;;;;;;;;;;;17.10;99.90;;;;;;4894076;28;20266;-74
2022/08/29 00:32:43;;;;;;;;;;;17.10;99.90;;;;;;4896625;28;19926;-75
2022/08/29 00:35:11;;;;;;;;;;;17.10;99.90;;;;;;4898704;28;19945;-73
2022/08/29 00:37:36;;;;;;;;;;;17.10;99.90;;;;;;4897535;28;21801;-72
2022/08/29 00:40:06;;;;;;;;;;;17.10;99.90;;;;;;4899842;28;20017;-72
2022/08/29 00:42:34;;;;;;;;;;;17.00;99.90;;;;;;4891236;28;20004;-72
2022/08/29 00:44:59;;;;;;;;;;;17.00;99.90;;;;;;4895901;28;19944;-73
2022/08/29 00:47:28;;;;;;;;;;;17.10;99.90;;;;;;4899811;28;20360;-72
2022/08/29 00:49:55;;;;;;;;;;;17.10;99.90;;;;;;4899277;28;19933;-73
2022/08/29 00:52:30;;;;;;;;;;;17.10;99.90;;;;;;4908543;28;20322;-73
2022/08/29 00:54:55;;;;;;;;;;;17.10;99.90;;;;;;4885044;28;19931;-72
2022/08/29 00:57:22;;;;;;;;;;;17.10;99.90;;;;;;4902859;28;20275;-72
2022/08/29 00:59:49;;;;;;;;;;;17.10;99.90;;;;;;4895536;28;19927;-72
2022/08/29 01:02:15;;;;;;;;;;;17.10;99.90;;;;;;4896187;28;20837;-72
2022/08/29 01:04:41;;;;;;;;;;;17.10;99.90;;;;;;4879012;28;19923;-72
2022/08/29 01:07:07;;;;;;;;;;;17.10;99.90;;;;;;4898207;28;19926;-72
2022/08/29 01:09:34;;;;;;;;;;;17.10;99.90;;;;;;4898267;28;19926;-72
2022/08/29 01:12:15;;;;;;;;;;;17.00;99.90;;;;;;4896164;28;20008;-72
2022/08/29 01:15:06;;;;;;;;;;;17.10;99.90;;;;;;4895667;28;20257;-72
2022/08/29 01:17:36;;;;;;;;;;;17.10;99.90;;;;;;4883484;28;20037;-72
2022/08/29 01:20:09;;;;;;;;;;;17.00;99.90;;;;;;4903991;28;20436;-72
2022/08/29 01:22:42;;;;;;;;;;;17.10;99.90;;;;;;4905000;28;19936;-72
2022/08/29 01:25:11;;;;;;;;;;;17.00;99.90;;;;;;4894173;28;19934;-73
2022/08/29 01:27:39;;;;;;;;;;;17.10;99.90;;;;;;4897585;28;19965;-72
2022/08/29 01:30:05;;;;;;;;;;;17.00;99.90;;;;;;4896567;28;20292;-72
2022/08/29 01:32:31;;;;;;;;;;;17.00;99.90;;;;;;4895322;28;19922;-72
2022/08/29 01:34:57;;;;;;;;;;;17.10;99.90;;;;;;4879196;29;19933;-72
2022/08/29 01:37:24;;;;;;;;;;;17.10;99.90;;;;;;4896876;28;20521;-72
2022/08/29 01:39:50;;;;;;;;;;;17.10;99.90;;;;;;4896582;28;19927;-72
2022/08/29 01:42:18;;;;;;;;;;;17.10;99.90;;;;;;4894752;28;19989;-72
2022/08/29 01:44:48;;;;;;;;;;;17.10;99.90;;;;;;4884025;28;20069;-73
2022/08/29 01:47:13;;;;;;;;;;;17.00;99.90;;;;;;4902853;28;19926;-72
2022/08/29 01:49:39;;;;;;;;;;;17.00;99.90;;;;;;4896392;28;20311;-72
2022/08/29 01:52:04;;;;;;;;;;;17.10;99.90;;;;;;4896597;28;20598;-72
2022/08/29 01:54:30;;;;;;;;;;;17.10;99.90;;;;;;4878086;28;21652;-72
2022/08/29 01:56:56;;;;;;;;;;;17.00;99.90;;;;;;4880505;28;20181;-72
2022/08/29 01:59:24;;;;;;;;;;;17.00;99.90;;;;;;4896196;28;19950;-72
2022/08/29 02:01:54;;;;;;;;;;;17.10;99.90;;;;;;4897243;28;19934;-72
2022/08/29 02:04:19;;;;;;;;;;;17.10;99.90;;;;;;4900557;28;20653;-72
2022/08/29 02:06:45;;;;;;;;;;;17.00;99.90;;;;;;4899218;28;19926;-72
2022/08/29 02:09:10;;;;;;;;;;;17.10;99.90;;;;;;4898604;28;19934;-72
2022/08/29 02:11:36;;;;;;;;;;;17.00;99.90;;;;;;4896704;28;20037;-72
2022/08/29 02:14:03;;;;;;;;;;;17.10;99.90;;;;;;4900731;28;20022;-72
2022/08/29 02:16:29;;;;;;;;;;;17.00;99.90;;;;;;4892646;28;20404;-72
2022/08/29 02:18:55;;;;;;;;;;;17.00;99.90;;;;;;4895819;28;20379;-72
2022/08/29 02:21:21;;;;;;;;;;;17.00;99.90;;;;;;4897105;28;19948;-72
2022/08/29 02:23:48;;;;;;;;;;;17.00;99.90;;;;;;4879265;28;19930;-72
2022/08/29 02:26:15;;;;;;;;;;;17.00;99.90;;;;;;4892194;28;19978;-72
2022/08/29 02:28:40;;;;;;;;;;;17.00;99.90;;;;;;4897677;28;20045;-72
2022/08/29 02:31:07;;;;;;;;;;;17.00;99.90;;;;;;4878582;28;19926;-72
2022/08/29 02:33:34;;;;;;;;;;;17.00;99.90;;;;;;4895552;28;22841;-72
2022/08/29 02:36:01;;;;;;;;;;;17.00;99.90;;;;;;4882584;28;19926;-72
2022/08/29 02:38:27;;;;;;;;;;;17.00;99.90;;;;;;4898070;28;23647;-72
2022/08/29 02:40:52;;;;;;;;;;;16.90;99.90;;;;;;4904374;28;20009;-72
2022/08/29 02:43:18;;;;;;;;;;;16.90;99.90;;;;;;4901003;28;19949;-72
2022/08/29 02:45:44;;;;;;;;;;;17.00;99.90;;;;;;4904265;28;19926;-72
2022/08/29 02:48:11;;;;;;;;;;;16.90;99.90;;;;;;4903645;28;19937;-72
2022/08/29 02:50:44;;;;;;;;;;;16.80;99.90;;;;;;4902035;28;20754;-72
2022/08/29 02:53:10;;;;;;;;;;;16.90;99.90;;;;;;4897587;28;19928;-72
2022/08/29 02:55:36;;;;;;;;;;;16.90;99.90;;;;;;4898102;28;20376;-72
2022/08/29 02:58:01;;;;;;;;;;;16.90;99.90;;;;;;4893366;28;19926;-72
2022/08/29 03:00:27;;;;;;;;;;;16.90;99.90;;;;;;4893502;28;19932;-72
2022/08/29 03:02:54;;;;;;;;;;;16.90;99.90;;;;;;4894105;28;20452;-72
2022/08/29 03:05:21;;;;;;;;;;;16.90;99.90;;;;;;4901767;28;21077;-72
2022/08/29 03:07:47;;;;;;;;;;;16.90;99.90;;;;;;4899592;28;19937;-72
2022/08/29 03:10:12;;;;;;;;;;;16.80;99.90;;;;;;4897672;28;19926;-73
2022/08/29 03:12:38;;;;;;;;;;;16.90;99.90;;;;;;4898627;28;20184;-72
2022/08/29 03:15:05;;;;;;;;;;;16.90;99.90;;;;;;4898113;28;19927;-73
2022/08/29 03:17:30;;;;;;;;;;;16.90;99.90;;;;;;4899112;28;20938;-72
2022/08/29 03:19:57;;;;;;;;;;;17.00;99.90;;;;;;4902610;28;19922;-73
2022/08/29 03:22:23;;;;;;;;;;;16.90;99.90;;;;;;4902205;28;19985;-72
2022/08/29 03:24:48;;;;;;;;;;;17.00;99.90;;;;;;4905569;28;19986;-72
2022/08/29 03:27:14;;;;;;;;;;;16.90;99.90;;;;;;4898823;28;20384;-72
2022/08/29 03:29:39;;;;;;;;;;;17.00;99.90;;;;;;4895352;28;20403;-72
2022/08/29 03:32:05;;;;;;;;;;;16.90;99.90;;;;;;4894668;28;19981;-72
2022/08/29 03:34:31;;;;;;;;;;;16.90;99.90;;;;;;4897877;28;19926;-72
2022/08/29 03:36:57;;;;;;;;;;;16.90;99.90;;;;;;4895995;28;22330;-72
2022/08/29 03:39:23;;;;;;;;;;;17.00;99.90;;;;;;4879702;28;19931;-73
2022/08/29 03:41:49;;;;;;;;;;;17.00;99.90;;;;;;4901487;28;19937;-72
2022/08/29 03:44:15;;;;;;;;;;;16.90;99.90;;;;;;4901175;28;20565;-72
2022/08/29 03:46:40;;;;;;;;;;;16.90;99.90;;;;;;4895751;28;19926;-72
2022/08/29 03:49:06;;;;;;;;;;;16.90;99.90;;;;;;4896668;28;21318;-72
2022/08/29 03:51:36;;;;;;;;;;;16.90;99.90;;;;;;4897927;28;19927;-72
2022/08/29 03:54:02;;;;;;;;;;;16.90;99.90;;;;;;4881435;28;20587;-72
2022/08/29 03:56:27;;;;;;;;;;;16.90;99.90;;;;;;4907566;28;19971;-72
2022/08/29 03:58:53;;;;;;;;;;;16.90;99.90;;;;;;4904681;28;19937;-72
2022/08/29 04:01:21;;;;;;;;;;;16.90;99.90;;;;;;4898802;28;20017;-72
2022/08/29 04:03:46;;;;;;;;;;;16.90;99.90;;;;;;4897829;28;19974;-72
2022/08/29 04:06:12;;;;;;;;;;;16.90;99.90;;;;;;4900042;28;20250;-72
2022/08/29 04:08:37;;;;;;;;;;;16.90;99.90;;;;;;4900677;28;19964;-72
2022/08/29 04:11:13;;;;;;;;;;;16.90;99.90;;;;;;4897504;28;19981;-72
2022/08/29 04:13:39;;;;;;;;;;;17.00;99.90;;;;;;4899318;28;19933;-72
2022/08/29 04:16:11;;;;;;;;;;;16.90;99.90;;;;;;4899961;28;19926;-72
2022/08/29 04:18:37;;;;;;;;;;;17.00;99.90;;;;;;4896082;28;20277;-73
2022/08/29 04:21:03;;;;;;;;;;;16.90;99.90;;;;;;4897674;28;20028;-72
2022/08/29 04:23:29;;;;;;;;;;;17.00;99.90;;;;;;4883640;28;20313;-73
2022/08/29 04:25:54;;;;;;;;;;;17.00;99.90;;;;;;4899806;28;19937;-72
2022/08/29 04:28:20;;;;;;;;;;;16.90;99.90;;;;;;4899450;28;20454;-72
2022/08/29 04:30:46;;;;;;;;;;;16.90;99.90;;;;;;4898716;28;19926;-72
2022/08/29 04:33:12;;;;;;;;;;;16.90;99.90;;;;;;4899352;28;19986;-72
2022/08/29 04:35:38;;;;;;;;;;;16.90;99.90;;;;;;4899176;28;20014;-72
2022/08/29 04:38:04;;;;;;;;;;;16.90;99.90;;;;;;4899056;28;20395;-72
2022/08/29 04:40:30;;;;;;;;;;;16.90;99.90;;;;;;4881028;28;20030;-72
2022/08/29 04:42:58;;;;;;;;;;;16.90;99.90;;;;;;4897532;28;19931;-72
2022/08/29 04:45:24;;;;;;;;;;;16.90;99.90;;;;;;4895111;28;19975;-73
2022/08/29 04:47:50;;;;;;;;;;;16.90;99.90;;;;;;4897927;28;19930;-72
2022/08/29 04:50:17;;;;;;;;;;;16.90;99.90;;;;;;4900436;28;20005;-72
2022/08/29 04:52:43;;;;;;;;;;;16.90;99.90;;;;;;4900225;28;20301;-73
2022/08/29 04:55:09;;;;;;;;;;;17.00;99.90;;;;;;4900568;28;19934;-72
2022/08/29 04:57:35;;;;;;;;;;;16.90;99.90;;;;;;4908591;28;19926;-72
2022/08/29 05:00:01;;;;;;;;;;;16.90;99.90;;;;;;4900288;28;19942;-72
2022/08/29 05:02:27;;;;;;;;;;;16.90;99.90;;;;;;4898935;28;20003;-72
2022/08/29 05:04:53;;;;;;;;;;;17.00;99.90;;;;;;4892079;28;20119;-72
2022/08/29 05:07:20;;;;;;;;;;;16.90;99.90;;;;;;4895510;28;19926;-73
2022/08/29 05:09:49;;;;;;;;;;;17.00;99.90;;;;;;4902919;28;20007;-72
2022/08/29 05:12:15;;;;;;;;;;;17.00;99.90;;;;;;4885909;28;19923;-73
2022/08/29 05:14:41;;;;;;;;;;;17.00;99.90;;;;;;4896399;28;19958;-72
2022/08/29 05:17:06;;;;;;;;;;;16.90;99.90;;;;;;4893320;28;20024;-72
2022/08/29 05:19:32;;;;;;;;;;;16.90;99.90;;;;;;4931370;23;20213;-71
2022/08/29 05:21:58;;;;;;;;;;;16.90;99.90;;;;;;4895714;28;19925;-71
2022/08/29 05:24:23;;;;;;;;;;;16.90;99.90;;;;;;4936792;28;20259;-71
2022/08/29 05:26:49;;;;;;;;;;;17.00;99.90;;;;;;4920851;28;19933;-71
2022/08/29 05:29:15;;;;;;;;;;;17.00;99.90;;;;;;4919139;28;22376;-72
2022/08/29 05:31:41;;;;;;;;;;;16.90;99.90;;;;;;4936932;28;19932;-71
2022/08/29 05:34:07;;;;;;;;;;;16.90;99.90;;;;;;4938148;28;19948;-75
2022/08/29 05:36:32;;;;;;;;;;;17.00;99.90;;;;;;4940254;28;20019;-71
2022/08/29 05:38:59;;;;;;;;;;;16.90;99.90;;;;;;4943289;28;19921;-71
2022/08/29 05:41:25;;;;;;;;;;;16.90;99.90;;;;;;4944842;28;19980;-72
2022/08/29 05:43:52;;;;;;;;;;;16.90;99.90;;;;;;4925642;28;19929;-72
2022/08/29 05:46:18;;;;;;;;;;;17.00;99.90;;;;;;4941914;28;19925;-72
2022/08/29 05:48:44;;;;;;;;;;;17.00;99.90;;;;;;4924709;28;19925;-74
2022/08/29 05:51:19;;;;;;;;;;;17.00;99.90;;;;;;4924506;28;19932;-73
2022/08/29 05:53:45;;;;;;;;;;;17.10;99.90;;;;;;4943112;28;20000;-72
2022/08/29 05:56:11;;;;;;;;;;;17.00;99.90;;;;;;4943636;28;20397;-71
2022/08/29 05:58:37;;;;;;;;;;;17.10;99.90;;;;;;4921095;28;19926;-71
2022/08/29 06:01:02;;;;;;;;;;;17.10;99.90;;;;;;4937844;28;20681;-72
2022/08/29 06:03:28;;;;;;;;;;;17.10;99.90;;;;;;4936951;28;19962;-71
2022/08/29 06:05:53;;;;;;;;;;;17.20;99.90;;;;;;4918221;28;20321;-71
2022/08/29 06:08:19;;;;;;;;;;;17.20;99.90;;;;;;4936984;28;19926;-71
2022/08/29 06:10:45;;;;;;;;;;;17.20;99.90;;;;;;4923978;28;19926;-71
2022/08/29 06:13:11;;;;;;;;;;;17.30;99.90;;;;;;4920571;28;20604;-69
2022/08/29 06:15:37;;;;;;;;;;;17.30;99.90;;;;;;4924387;28;19929;-72
2022/08/29 06:18:03;;;;;;;;;;;17.30;99.90;;;;;;4924189;28;20350;-71
2022/08/29 06:20:28;;;;;;;;;;;17.30;99.90;;;;;;4926117;28;20295;-72
2022/08/29 06:22:54;;;;;;;;;;;17.40;99.90;;;;;;4926517;28;20028;-72
2022/08/29 06:25:19;;;;;;;;;;;17.40;99.90;;;;;;4926950;28;20244;-71
2022/08/29 06:27:45;;;;;;;;;;;17.50;99.90;;;;;;4942874;28;19943;-71
2022/08/29 06:30:10;;;;;;;;;;;17.40;99.90;;;;;;4922799;28;20012;-71
2022/08/29 06:32:36;;;;;;;;;;;17.50;99.90;;;;;;4924843;28;20015;-72
2022/08/29 06:35:02;;;;;;;;;;;17.50;99.90;;;;;;4927170;28;19932;-72
2022/08/29 06:37:27;;;;;;;;;;;17.50;99.90;;;;;;4930107;28;20336;-70
2022/08/29 06:39:53;;;;;;;;;;;17.50;99.90;;;;;;4932331;28;20368;-70
2022/08/29 06:42:22;;;;;;;;;;;17.60;99.90;;;;;;4911357;28;19930;-70
2022/08/29 06:44:48;;;;;;;;;;;17.60;99.90;;;;;;4945396;28;20012;-70
2022/08/29 06:47:14;;;;;;;;;;;17.60;99.90;;;;;;4945791;28;19932;-70
2022/08/29 06:49:40;;;;;;;;;;;17.60;99.90;;;;;;4924551;28;20247;-70
2022/08/29 06:52:05;;;;;;;;;;;17.60;99.90;;;;;;4909817;28;19933;-70
2022/08/29 06:54:31;;;;;;;;;;;17.60;99.90;;;;;;4926643;28;19925;-70
2022/08/29 06:56:57;;;;;;;;;;;17.70;99.90;;;;;;4927397;28;19925;-70
2022/08/29 06:59:22;;;;;;;;;;;17.70;99.90;;;;;;4911025;28;19925;-70
2022/08/29 07:01:48;;;;;;;;;;;17.70;99.90;;;;;;4925096;28;19929;-69
2022/08/29 07:04:14;;;;;;;;;;;17.70;99.90;;;;;;4927324;28;19922;-70
2022/08/29 07:06:40;;;;;;;;;;;17.80;99.90;;;;;;4948299;28;19934;-70
2022/08/29 07:09:05;;;;;;;;;;;17.80;99.90;;;;;;4934514;28;19925;-70
2022/08/29 07:11:31;;;;;;;;;;;17.80;99.90;;;;;;4944874;28;19969;-70
2022/08/29 07:14:03;;;;;;;;;;;17.90;99.90;;;;;;4911622;28;20053;-70
2022/08/29 07:16:29;;;;;;;;;;;17.90;99.90;;;;;;4926209;28;19921;-70
2022/08/29 07:18:55;;;;;;;;;;;17.90;99.90;;;;;;4923883;28;21325;-70
2022/08/29 07:21:21;;;;;;;;;;;18.00;99.90;;;;;;4945707;28;19926;-71
2022/08/29 07:23:48;;;;;;;;;;;18.00;99.90;;;;;;4929151;28;20383;-70
2022/08/29 07:26:15;;;;;;;;;;;18.00;99.90;;;;;;4950063;28;19951;-70
2022/08/29 07:28:41;;;;;;;;;;;18.00;99.90;;;;;;4929297;28;19925;-70
2022/08/29 07:31:07;;;;;;;;;;;18.00;99.90;;;;;;4915053;28;19926;-70
2022/08/29 07:33:32;;;;;;;;;;;18.00;99.90;;;;;;4928949;28;20481;-70
2022/08/29 07:35:58;;;;;;;;;;;18.00;99.90;;;;;;4945629;28;19925;-70
2022/08/29 07:38:29;;;;;;;;;;;18.10;99.90;;;;;;4944436;28;20101;-70
2022/08/29 07:40:59;;;;;;;;;;;18.10;99.90;;;;;;4948247;28;19926;-70
2022/08/29 07:43:25;;;;;;;;;;;18.20;99.90;;;;;;4928565;28;20384;-70
2022/08/29 07:45:51;;;;;;;;;;;18.20;99.90;;;;;;4936347;28;20216;-70
2022/08/29 07:48:16;;;;;;;;;;;18.20;99.90;;;;;;4951396;28;22515;-70
2022/08/29 07:50:42;;;;;;;;;;;18.30;99.90;;;;;;4948854;28;19932;-71
2022/08/29 07:53:08;;;;;;;;;;;18.30;99.90;;;;;;4932793;28;19926;-70
2022/08/29 07:55:35;;;;;;;;;;;18.40;99.90;;;;;;4934416;28;19925;-70
2022/08/29 07:58:02;;;;;;;;;;;18.40;99.90;;;;;;4935067;28;20390;-70
2022/08/29 08:00:28;;;;;;;;;;;18.40;99.90;;;;;;4920429;28;19926;-70
2022/08/29 08:02:53;;;;;;;;;;;18.50;99.90;;;;;;4948365;28;19961;-69
2022/08/29 08:05:19;;;;;;;;;;;18.50;99.90;;;;;;4955803;28;20248;-70
2022/08/29 08:07:45;;;;;;;;;;;18.50;99.90;;;;;;4933740;28;20021;-70
2022/08/29 08:10:11;;;;;;;;;;;18.60;99.90;;;;;;4946004;28;19980;-70
2022/08/29 08:12:36;;;;;;;;;;;18.70;99.90;;;;;;4948776;28;20384;-70
2022/08/29 08:15:02;;;;;;;;;;;18.80;99.90;;;;;;4946436;28;19926;-70
2022/08/29 08:17:28;;;;;;;;;;;18.80;99.90;;;;;;4930669;28;20781;-70
2022/08/29 08:19:53;;;;;;;;;;;18.90;99.90;;;;;;4930081;28;20407;-70
2022/08/29 08:22:19;;;;;;;;;;;18.90;99.90;;;;;;4930355;28;20020;-70
2022/08/29 08:24:44;;;;;;;;;;;19.00;99.90;;;;;;4948128;28;19925;-70
2022/08/29 08:27:10;;;;;;;;;;;19.00;99.90;;;;;;4948289;28;19925;-70
2022/08/29 08:29:36;;;;;;;;;;;19.10;99.90;;;;;;4947528;28;19926;-70
2022/08/29 08:32:01;;;;;;;;;;;19.20;99.90;;;;;;4929823;28;19968;-70
2022/08/29 08:34:28;;;;;;;;;;;19.20;99.90;;;;;;4949382;28;20371;-71
2022/08/29 08:36:53;;;;;;;;;;;19.30;99.90;;;;;;4947581;28;19933;-70
2022/08/29 08:39:19;;;;;;;;;;;19.30;99.90;;;;;;4929695;28;19961;-70
2022/08/29 08:41:53;;;;;;;;;;;19.40;99.90;;;;;;4929443;28;20276;-71
2022/08/29 08:44:25;;;;;;;;;;;19.50;99.90;;;;;;4929647;28;20013;-70
2022/08/29 08:46:53;;;;;;;;;;;19.60;99.90;;;;;;4933197;28;20013;-71
2022/08/29 08:49:39;;;;;;;;;;;19.70;99.90;;;;;;4929700;28;19987;-70
2022/08/29 08:52:08;;;;;;;;;;;19.70;99.90;;;;;;4928256;28;19925;-70
2022/08/29 08:54:38;;;;;;;;;;;19.90;99.90;;;;;;4929267;28;20020;-70
2022/08/29 08:57:07;;;;;;;;;;;20.00;99.90;;;;;;4943034;28;20647;-70
2022/08/29 08:59:41;;;;;;;;;;;20.10;99.90;;;;;;4925065;28;19930;-70
2022/08/29 09:02:16;;;;;;;;;;;20.20;99.90;;;;;;4924811;28;20020;-73
2022/08/29 09:04:50;;;;;;;;;;;20.20;99.90;;;;;;4929132;28;19937;-70
2022/08/29 09:07:35;;;;;;;;;;;20.20;99.90;;;;;;4928519;28;19942;-70
2022/08/29 09:10:01;;;;;;;;;;;20.20;99.90;;;;;;4928341;28;20017;-70
2022/08/29 09:12:36;;;;;;;;;;;20.20;99.90;;;;;;4950948;28;19926;-71
2022/08/29 09:15:07;;;;;;;;;;;20.20;99.90;;;;;;4954179;28;19926;-70
2022/08/29 09:17:40;;;;;;;;;;;20.20;99.90;;;;;;4932626;28;20601;-74
2022/08/29 09:20:09;;;;;;;;;;;20.20;99.90;;;;;;4921053;28;19926;-69
2022/08/29 09:22:35;;;;;;;;;;;20.10;99.90;;;;;;4907034;28;19929;-70
2022/08/29 09:25:04;;;;;;;;;;;20.10;99.90;;;;;;4939604;28;19960;-70
2022/08/29 09:27:30;;;;;;;;;;;20.10;99.90;;;;;;4930431;28;20358;-71
2022/08/29 09:29:59;;;;;;;;;;;20.20;99.90;;;;;;4941878;28;19989;-70
2022/08/29 09:32:24;;;;;;;;;;;20.20;99.90;;;;;;4914446;28;19930;-70
2022/08/29 09:34:50;;;;;;;;;;;20.30;99.90;;;;;;4928428;28;19972;-70
2022/08/29 09:37:30;;;;;;;;;;;20.40;99.90;;;;;;4947307;28;20234;-70
2022/08/29 09:40:00;;;;;;;;;;;20.40;99.90;;;;;;4926259;28;19926;-70
2022/08/29 09:42:31;;;;;;;;;;;20.50;99.90;;;;;;4926660;28;19945;-70
2022/08/29 09:44:57;;;;;;;;;;;20.60;99.90;;;;;;4926808;28;19928;-71
2022/08/29 09:47:23;;;;;;;;;;;20.60;99.90;;;;;;4926409;28;19925;-70
2022/08/29 09:50:07;;;;;;;;;;;20.60;99.90;;;;;;4947396;28;22991;-70
2022/08/29 09:52:33;;;;;;;;;;;20.70;99.90;;;;;;4945960;28;20306;-70
2022/08/29 09:55:15;;;;;;;;;;;20.70;99.90;;;;;;4946947;28;19925;-70
2022/08/29 09:57:47;;;;;;;;;;;20.70;99.90;;;;;;4928235;28;19996;-70
2022/08/29 10:00:15;;;;;;;;;;;20.80;99.90;;;;;;4929559;28;20309;-70
2022/08/29 10:02:41;;;;;;;;;;;20.90;99.90;;;;;;4929403;28;20575;-70
2022/08/29 10:05:08;;;;;;;;;;;21.00;99.90;;;;;;4926505;28;19926;-70
2022/08/29 10:07:44;;;;;;;;;;;21.00;99.90;;;;;;4946643;28;19926;-71
2022/08/29 10:10:15;;;;;;;;;;;21.00;99.90;;;;;;4935702;28;19926;-71
2022/08/29 10:12:59;;;;;;;;;;;21.00;99.90;;;;;;4948431;28;19925;-71
2022/08/29 10:15:27;;;;;;;;;;;21.00;99.90;;;;;;4951695;28;19933;-71
2022/08/29 10:21:00;;;;;;;;;;;21.20;99.90;;;;;;4950571;28;20241;-71
2022/08/29 10:23:29;;;;;;;;;;;21.30;99.90;;;;;;4952760;28;19936;-71
2022/08/29 10:25:56;;;;;;;;;;;21.30;99.90;;;;;;4926893;28;21234;-71
2022/08/29 10:28:48;;;;;;;;;;;21.30;99.90;;;;;;4943334;28;20352;-71
2022/08/29 10:31:29;;;;;;;;;;;21.20;99.90;;;;;;4940860;28;19925;-71
2022/08/29 10:34:25;;;;;;;;;;;21.20;99.90;;;;;;4835133;28;20793;-72
2022/08/29 10:36:54;;;;;;;;;;;21.10;99.90;;;;;;4884721;28;20326;-70
2022/08/29 10:39:23;;;;;;;;;;;21.00;99.90;;;;;;4972331;28;20362;-71
2022/08/29 10:41:56;;;;;;;;;;;20.80;99.90;;;;;;4975325;28;19924;-71
2022/08/29 10:44:43;;;;;;;;;;;20.70;99.90;;;;;;4815016;28;20279;-72
2022/08/29 10:47:18;;;;;;;;;;;20.60;99.90;;;;;;4914655;28;22332;-72
2022/08/29 10:50:03;;;;;;;;;;;20.60;99.90;;;;;;4933386;28;19964;-72
2022/08/29 10:52:38;;;;;;;;;;;20.50;99.90;;;;;;4919352;28;19976;-72
2022/08/29 10:55:17;;;;;;;;;;;20.50;99.90;;;;;;4919189;28;19926;-72
2022/08/29 10:57:49;;;;;;;;;;;20.60;99.90;;;;;;4922762;28;20858;-72
2022/08/29 11:00:20;;;;;;;;;;;20.80;99.90;;;;;;4914422;28;20840;-72
2022/08/29 11:03:04;;;;;;;;;;;20.80;99.90;;;;;;4918826;28;19941;-69
2022/08/29 11:05:41;;;;;;;;;;;20.90;99.90;;;;;;4917470;28;19987;-70
2022/08/29 11:08:11;;;;;;;;;;;21.00;99.90;;;;;;4921955;28;20086;-70
2022/08/29 11:10:39;;;;;;;;;;;21.00;99.90;;;;;;4918114;28;22726;-70
2022/08/29 11:13:09;;;;;;;;;;;21.10;99.90;;;;;;4938523;28;19976;-70
2022/08/29 11:15:41;;;;;;;;;;;21.20;99.90;;;;;;4921551;28;19937;-70
2022/08/29 11:18:14;;;;;;;;;;;21.30;99.90;;;;;;4923842;28;19922;-70
2022/08/29 11:20:42;;;;;;;;;;;21.40;99.90;;;;;;4959971;23;20332;-71
2022/08/29 11:23:15;;;;;;;;;;;21.40;99.90;;;;;;4956039;28;20027;-71
2022/08/29 11:25:41;;;;;;;;;;;21.30;99.90;;;;;;4958010;28;20383;-71
2022/08/29 11:28:13;;;;;;;;;;;21.30;99.90;;;;;;4939672;28;20337;-71
2022/08/29 11:30:56;;;;;;;;;;;21.30;99.90;;;;;;4939157;28;20411;-71
2022/08/29 11:33:30;;;;;;;;;;;21.40;99.90;;;;;;4954341;28;20198;-71
2022/08/29 11:36:05;;;;;;;;;;;21.50;99.90;;;;;;4956507;28;20249;-71
2022/08/29 11:38:34;;;;;;;;;;;21.50;99.90;;;;;;4951699;28;19931;-71
2022/08/29 11:41:03;;;;;;;;;;;21.50;99.90;;;;;;4940633;28;20444;-72
2022/08/29 11:43:34;;;;;;;;;;;21.50;99.90;;;;;;4957329;28;19964;-71
2022/08/29 11:46:01;;;;;;;;;;;21.60;99.90;;;;;;4955334;28;19955;-71
2022/08/29 11:48:33;;;;;;;;;;;21.60;99.90;;;;;;4939597;28;19926;-71
2022/08/29 11:51:00;;;;;;;;;;;21.60;99.90;;;;;;4928391;28;19948;-71
2022/08/29 11:53:32;;;;;;;;;;;21.50;99.90;;;;;;4955955;28;19926;-71
2022/08/29 11:56:13;;;;;;;;;;;21.60;99.90;;;;;;4956201;28;20284;-71
2022/08/29 11:58:41;;;;;;;;;;;21.60;99.90;;;;;;4941000;28;20216;-71
2022/08/29 12:01:08;;;;;;;;;;;21.60;99.90;;;;;;4953684;28;19932;-72
2022/08/29 12:03:33;;;;;;;;;;;21.70;99.90;;;;;;4954121;28;19983;-72
2022/08/29 12:06:00;;;;;;;;;;;21.80;99.90;;;;;;4957386;28;20012;-71
2022/08/29 12:08:38;;;;;;;;;;;21.80;99.90;;;;;;4937769;28;19932;-71
2022/08/29 12:11:04;;;;;;;;;;;21.90;99.90;;;;;;4938525;28;19926;-71
2022/08/29 12:13:42;;;;;;;;;;;22.00;99.90;;;;;;4941622;28;20210;-72
2022/08/29 12:16:11;;;;;;;;;;;22.00;99.90;;;;;;4940286;28;19933;-72
2022/08/29 12:18:44;;;;;;;;;;;22.00;99.90;;;;;;4941454;28;20699;-72
2022/08/29 12:21:29;;;;;;;;;;;22.00;99.90;;;;;;4939524;28;20082;-72
2022/08/29 12:23:54;;;;;;;;;;;22.00;99.90;;;;;;4960457;28;20264;-72
2022/08/29 12:26:41;;;;;;;;;;;22.00;99.90;;;;;;4941245;28;19925;-72
2022/08/29 12:29:15;;;;;;;;;;;22.00;99.90;;;;;;4958807;28;21396;-71
2022/08/29 12:32:00;;;;;;;;;;;21.90;99.90;;;;;;4941529;28;20095;-72
2022/08/29 12:34:48;;;;;;;;;;;21.90;99.90;;;;;;4960596;28;21046;-72
2022/08/29 12:37:27;;;;;;;;;;;21.80;99.90;;;;;;4944554;28;19933;-71
2022/08/29 12:40:11;;;;;;;;;;;21.70;99.90;;;;;;4960773;28;19926;-71
2022/08/29 12:42:49;;;;;;;;;;;21.70;99.90;;;;;;4963883;28;19925;-71
2022/08/29 12:45:16;;;;;;;;;;;21.70;99.90;;;;;;4943762;28;19921;-72
2022/08/29 12:47:46;;;;;;;;;;;21.80;99.90;;;;;;4954964;28;19930;-71
2022/08/29 12:50:15;;;;;;;;;;;21.80;99.90;;;;;;4942237;28;21154;-71
2022/08/29 12:52:41;;;;;;;;;;;21.80;99.90;;;;;;4959405;28;19917;-72
2022/08/29 12:55:19;;;;;;;;;;;21.90;99.90;;;;;;4958978;28;20190;-71
2022/08/29 12:57:46;;;;;;;;;;;21.90;99.90;;;;;;4926125;28;20016;-72
2022/08/29 13:00:23;;;;;;;;;;;21.90;99.90;;;;;;4950540;28;19922;-71
2022/08/29 13:03:08;;;;;;;;;;;21.90;99.90;;;;;;4956832;28;20597;-72
2022/08/29 13:05:38;;;;;;;;;;;21.90;99.90;;;;;;4938148;28;20298;-72
2022/08/29 13:08:08;;;;;;;;;;;21.90;99.90;;;;;;4963141;28;19929;-72
2022/08/29 13:10:35;;;;;;;;;;;22.00;99.90;;;;;;4942338;28;19929;-71
2022/08/29 13:13:06;;;;;;;;;;;22.10;99.90;;;;;;4955612;28;19932;-71
2022/08/29 13:15:31;;;;;;;;;;;22.00;99.90;;;;;;4958742;28;21054;-71
2022/08/29 13:17:57;;;;;;;;;;;22.00;99.90;;;;;;4954010;28;20286;-72
2022/08/29 13:20:39;;;;;;;;;;;21.90;99.90;;;;;;4956826;28;20016;-72
2022/08/29 13:23:11;;;;;;;;;;;21.90;99.90;;;;;;4954928;28;20256;-73
2022/08/29 13:25:44;;;;;;;;;;;21.80;99.90;;;;;;4937277;28;21122;-71
2022/08/29 13:28:15;;;;;;;;;;;21.80;99.90;;;;;;4952867;28;20146;-71
2022/08/29 13:30:41;;;;;;;;;;;21.80;99.90;;;;;;4939404;28;20260;-71
2022/08/29 13:33:06;;;;;;;;;;;21.70;99.90;;;;;;4959501;28;19922;-72
2022/08/29 13:35:32;;;;;;;;;;;21.70;99.90;;;;;;4947846;28;19972;-71
2022/08/29 13:38:18;;;;;;;;;;;21.70;99.90;;;;;;4967546;28;19918;-71
2022/08/29 13:40:45;;;;;;;;;;;21.70;99.90;;;;;;4946637;28;20028;-71
2022/08/29 13:43:30;;;;;;;;;;;21.60;99.90;;;;;;4961520;28;20168;-71
2022/08/29 13:46:13;;;;;;;;;;;21.40;99.90;;;;;;4945287;28;19938;-71
2022/08/29 13:48:39;;;;;;;;;;;21.30;99.90;;;;;;4944580;28;20343;-71
2022/08/29 13:51:05;;;;;;;;;;;21.10;99.90;;;;;;4963639;28;19988;-71
2022/08/29 13:53:31;;;;;;;;;;;21.00;99.90;;;;;;4965911;28;19966;-71
2022/08/29 13:55:58;;;;;;;;;;;20.90;99.90;;;;;;4963754;28;20028;-71
2022/08/29 13:58:25;;;;;;;;;;;20.80;99.90;;;;;;4947653;28;19925;-71
2022/08/29 14:00:51;;;;;;;;;;;20.70;99.90;;;;;;4950710;28;20411;-71
2022/08/29 14:03:18;;;;;;;;;;;20.70;99.90;;;;;;4965073;28;19930;-71
2022/08/29 14:05:44;;;;;;;;;;;20.70;99.90;;;;;;4964880;28;19960;-71
2022/08/29 14:08:10;;;;;;;;;;;20.70;99.90;;;;;;4965970;28;19925;-71
2022/08/29 14:10:36;;;;;;;;;;;20.70;99.90;;;;;;4960859;28;19979;-71
2022/08/29 14:13:02;;;;;;;;;;;20.60;99.90;;;;;;4967062;28;19922;-72
2022/08/29 14:15:27;;;;;;;;;;;20.50;99.90;;;;;;4970810;28;19960;-72
2022/08/29 14:17:53;;;;;;;;;;;20.50;99.90;;;;;;4967783;28;20315;-71
2022/08/29 14:20:19;;;;;;;;;;;20.60;99.90;;;;;;4951118;28;19936;-71
2022/08/29 14:22:45;;;;;;;;;;;20.50;99.90;;;;;;4970298;28;19943;-71
2022/08/29 14:25:11;;;;;;;;;;;20.50;99.90;;;;;;4972122;28;20302;-71
2022/08/29 14:27:37;;;;;;;;;;;20.50;99.90;;;;;;4953751;28;19925;-71